createdAt,value
2018-06-03T00:02:03.452Z,33.10
2018-06-03T00:04:30.956Z,32.97
2018-06-03T00:06:58.422Z,33.30
2018-06-03T00:09:25.912Z,34.93
2018-06-03T00:11:53.369Z,34.80
2018-06-03T00:14:20.864Z,34.83
2018-06-03T00:16:49.097Z,33.70
2018-06-03T00:19:16.559Z,34.73
2018-06-03T00:21:44.307Z,35.30
2018-06-03T00:24:11.781Z,34.23
2018-06-03T00:26:39.244Z,33.93
2018-06-03T00:29:06.874Z,34.30
2018-06-03T00:31:34.381Z,37.23
2018-06-03T00:34:01.853Z,36.23
2018-06-03T00:36:41.926Z,35.43
2018-06-03T00:39:09.397Z,33.90
2018-06-03T00:41:36.860Z,33.67
2018-06-03T00:44:04.453Z,33.07
2018-06-03T00:46:31.917Z,33.20
2018-06-03T00:48:59.382Z,31.83
2018-06-03T00:51:27.854Z,31.93
2018-06-03T00:53:55.324Z,32.67
2018-06-03T00:56:35.525Z,31.97
2018-06-03T00:59:02.997Z,31.27
2018-06-03T01:01:30.468Z,31.43
2018-06-03T01:03:58.143Z,29.70
2018-06-03T01:06:26.540Z,32.00
2018-06-03T01:08:54.029Z,34.20
2018-06-03T01:11:21.513Z,34.23
2018-06-03T01:13:48.987Z,33.00
2018-06-03T01:16:16.484Z,34.53
2018-06-03T01:18:43.958Z,33.37
2018-06-03T01:21:11.425Z,31.70
2018-06-03T01:23:38.900Z,32.67
2018-06-03T01:26:06.375Z,32.83
2018-06-03T01:28:34.608Z,33.50
2018-06-03T01:31:02.319Z,35.27
2018-06-03T01:33:30.548Z,35.10
2018-06-03T01:35:58.026Z,32.17
2018-06-03T01:38:26.350Z,31.33
2018-06-03T01:40:53.809Z,31.90
2018-06-03T01:43:21.277Z,34.63
2018-06-03T01:45:48.783Z,33.97
2018-06-03T01:48:16.247Z,35.53
2018-06-03T01:50:43.713Z,34.37
2018-06-03T01:53:12.113Z,34.23
2018-06-03T01:55:39.578Z,34.83
2018-06-03T01:58:07.036Z,36.97
2018-06-03T02:00:34.550Z,35.13
2018-06-03T02:03:02.098Z,37.20
2018-06-03T02:05:29.762Z,33.33
2018-06-03T02:07:57.373Z,35.77
2018-06-03T02:10:24.834Z,36.57
2018-06-03T02:12:52.316Z,36.70
2018-06-03T02:15:19.854Z,36.03
2018-06-03T02:17:47.317Z,35.30
2018-06-03T02:20:15.025Z,35.90
2018-06-03T02:22:43.250Z,34.90
2018-06-03T02:25:10.710Z,34.73
2018-06-03T02:27:38.184Z,37.20
2018-06-03T02:30:05.654Z,37.80
2018-06-03T02:32:33.117Z,36.20
2018-06-03T02:35:00.782Z,37.87
2018-06-03T02:37:28.246Z,37.60
2018-06-03T02:39:56.485Z,37.73
2018-06-03T02:42:23.977Z,37.67
2018-06-03T02:44:52.215Z,39.90
2018-06-03T02:47:19.693Z,38.00
2018-06-03T02:49:47.192Z,39.00
2018-06-03T02:52:14.656Z,37.40
2018-06-03T02:54:42.113Z,41.27
2018-06-03T02:57:09.818Z,40.23
2018-06-03T02:59:37.284Z,40.90
2018-06-03T03:02:04.838Z,39.43
2018-06-03T03:04:32.481Z,40.07
2018-06-03T03:06:59.952Z,39.50
2018-06-03T03:09:27.409Z,40.70
2018-06-03T03:11:55.076Z,39.77
2018-06-03T03:14:22.629Z,42.37
2018-06-03T03:16:50.098Z,42.17
2018-06-03T03:19:17.848Z,41.33
2018-06-03T03:21:45.314Z,41.50
2018-06-03T03:24:14.289Z,40.67
2018-06-03T03:26:41.929Z,40.27
2018-06-03T03:29:09.404Z,39.10
2018-06-03T03:31:36.886Z,40.50
2018-06-03T03:34:05.272Z,41.10
2018-06-03T03:36:33.499Z,39.83
2018-06-03T03:39:00.962Z,38.50
2018-06-03T03:41:28.649Z,40.03
2018-06-03T03:43:57.617Z,40.13
2018-06-03T03:46:25.094Z,40.10
2018-06-03T03:48:52.568Z,38.27
2018-06-03T03:51:20.804Z,40.33
2018-06-03T03:53:48.485Z,39.80
2018-06-03T03:56:16.032Z,40.20
2018-06-03T03:58:43.496Z,41.83
2018-06-03T04:01:11.133Z,40.83
2018-06-03T04:03:38.612Z,41.00
2018-06-03T04:06:06.074Z,40.33
2018-06-03T04:08:33.574Z,41.40
2018-06-03T04:11:01.793Z,41.43
2018-06-03T04:13:29.465Z,42.27
2018-06-03T04:15:56.938Z,42.07
2018-06-03T04:18:25.174Z,39.90
2018-06-03T04:20:52.804Z,40.93
2018-06-03T04:23:20.282Z,39.07
2018-06-03T04:25:47.746Z,41.63
2018-06-03T04:28:15.225Z,40.67
2018-06-03T04:30:42.693Z,39.87
2018-06-03T04:33:10.925Z,42.80
2018-06-03T04:35:38.632Z,41.70
2018-06-03T04:38:06.098Z,39.63
2018-06-03T04:40:34.328Z,41.27
2018-06-03T04:43:01.810Z,40.43
2018-06-03T04:45:29.315Z,39.87
2018-06-03T04:47:56.786Z,39.83
2018-06-03T04:50:24.410Z,40.23
2018-06-03T04:52:52.636Z,39.90
2018-06-03T04:55:20.100Z,39.63
2018-06-03T04:57:47.776Z,39.30
2018-06-03T05:00:15.252Z,40.40
2018-06-03T05:02:43.496Z,42.50
2018-06-03T05:05:10.977Z,40.20
2018-06-03T05:07:39.216Z,40.00
2018-06-03T05:10:06.690Z,39.30
2018-06-03T05:12:35.054Z,40.23
2018-06-03T05:15:02.520Z,40.97
2018-06-03T05:17:29.985Z,41.30
2018-06-03T05:19:57.471Z,39.57
2018-06-03T05:22:24.938Z,42.70
2018-06-03T05:24:52.413Z,41.87
2018-06-03T05:27:19.889Z,41.53
2018-06-03T05:29:47.355Z,40.23
2018-06-03T05:32:14.818Z,41.40
2018-06-03T05:34:42.405Z,40.77
2018-06-03T05:37:10.641Z,41.67
2018-06-03T05:39:38.113Z,39.97
2018-06-03T05:42:05.773Z,40.00
2018-06-03T05:44:34.011Z,40.90
2018-06-03T05:47:01.460Z,39.70
2018-06-03T05:49:29.167Z,39.97
2018-06-03T05:51:56.637Z,41.30
2018-06-03T05:54:24.885Z,40.80
2018-06-03T05:56:52.559Z,41.83
2018-06-03T05:59:20.025Z,41.53
2018-06-03T06:01:47.499Z,41.37
2018-06-03T06:04:15.736Z,42.43
2018-06-03T06:06:43.205Z,41.50
2018-06-03T06:09:10.865Z,43.70
2018-06-03T06:11:38.352Z,43.40
2018-06-03T06:14:06.584Z,44.97
2018-06-03T06:16:35.737Z,48.57
2018-06-03T06:19:03.224Z,43.23
2018-06-03T06:21:30.692Z,44.07
2018-06-03T06:23:58.364Z,45.67
2018-06-03T06:26:25.829Z,46.67
2018-06-03T06:28:54.068Z,45.77
2018-06-03T06:31:21.715Z,46.53
2018-06-03T06:33:49.221Z,44.90
2018-06-03T06:36:17.452Z,44.90
2018-06-03T06:38:44.952Z,46.00
2018-06-03T06:41:12.413Z,49.07
2018-06-03T06:43:40.657Z,46.73
2018-06-03T06:46:08.197Z,47.23
2018-06-03T06:48:35.669Z,46.63
2018-06-03T06:51:03.141Z,50.87
2018-06-03T06:53:30.630Z,49.60
2018-06-03T06:55:58.885Z,48.57
2018-06-03T06:58:26.349Z,52.00
2018-06-03T07:00:54.760Z,52.60
2018-06-03T07:03:22.221Z,51.77
2018-06-03T07:05:49.875Z,49.10
2018-06-03T07:08:17.393Z,50.07
2018-06-03T07:10:44.864Z,48.63
2018-06-03T07:13:13.164Z,47.40
2018-06-03T07:15:40.594Z,50.67
2018-06-03T07:18:08.052Z,50.80
2018-06-03T07:20:36.285Z,47.13
2018-06-03T07:23:03.781Z,48.00
2018-06-03T07:25:31.237Z,49.37
2018-06-03T07:27:59.505Z,47.27
2018-06-03T07:30:26.969Z,48.20
2018-06-03T07:32:54.645Z,45.73
2018-06-03T07:35:22.878Z,47.20
2018-06-03T07:37:50.345Z,44.77
2018-06-03T07:40:18.043Z,46.10
2018-06-03T07:42:46.269Z,43.73
2018-06-03T07:45:13.732Z,43.87
2018-06-03T07:47:41.429Z,45.93
2018-06-03T07:50:09.661Z,46.53
2018-06-03T07:52:37.129Z,45.33
2018-06-03T07:55:04.732Z,44.40
2018-06-03T07:57:32.956Z,44.40
2018-06-03T08:00:00.438Z,46.20
2018-06-03T08:02:27.930Z,44.50
2018-06-03T08:04:55.394Z,45.27
2018-06-03T08:07:22.866Z,42.80
2018-06-03T08:09:50.553Z,48.77
2018-06-03T08:12:18.018Z,45.13
2018-06-03T08:14:46.298Z,52.07
2018-06-03T08:17:13.793Z,49.23
2018-06-03T08:19:41.274Z,50.90
2018-06-03T08:22:08.788Z,46.47
2018-06-03T08:24:37.123Z,48.17
2018-06-03T08:27:05.973Z,45.00
2018-06-03T08:29:34.690Z,44.87
2018-06-03T08:32:02.157Z,45.30
2018-06-03T08:34:29.866Z,45.13
2018-06-03T08:36:57.363Z,46.40
2018-06-03T08:39:24.854Z,48.90
2018-06-03T08:41:52.328Z,45.67
2018-06-03T08:44:20.573Z,47.53
2018-06-03T08:46:48.037Z,46.67
2018-06-03T08:49:15.705Z,47.00
2018-06-03T08:51:43.170Z,46.07
2018-06-03T08:54:11.401Z,47.13
2018-06-03T08:56:39.097Z,46.53
2018-06-03T08:59:06.737Z,43.27
2018-06-03T09:01:34.311Z,42.73
2018-06-03T09:04:01.973Z,42.93
2018-06-03T09:06:29.452Z,43.10
2018-06-03T09:08:57.747Z,43.37
2018-06-03T09:11:25.426Z,46.33
2018-06-03T09:13:52.901Z,41.40
2018-06-03T09:16:20.371Z,45.37
2018-06-03T09:18:49.369Z,47.17
2018-06-03T09:21:16.828Z,41.97
2018-06-03T09:23:44.306Z,43.70
2018-06-03T09:26:12.581Z,44.23
2018-06-03T09:28:40.822Z,45.70
2018-06-03T09:31:08.288Z,42.10
2018-06-03T09:33:35.959Z,41.67
2018-06-03T09:36:03.424Z,42.77
2018-06-03T09:38:31.656Z,44.70
2018-06-03T09:40:59.325Z,43.90
2018-06-03T09:43:26.797Z,41.40
2018-06-03T09:45:54.291Z,39.20
2018-06-03T09:48:21.778Z,37.30
2018-06-03T09:50:49.261Z,38.00
2018-06-03T09:53:16.737Z,36.47
2018-06-03T09:55:44.212Z,34.03
2018-06-03T09:58:11.773Z,27.57
2018-06-03T10:00:39.238Z,28.13
2018-06-03T10:03:06.957Z,30.60
2018-06-03T10:05:35.208Z,27.20
2018-06-03T10:08:03.497Z,31.13
2018-06-03T10:10:31.172Z,32.23
2018-06-03T10:12:58.657Z,29.07
2018-06-03T10:15:26.879Z,28.30
2018-06-03T10:17:54.356Z,27.43
2018-06-03T10:20:21.838Z,29.20
2018-06-03T10:22:50.073Z,28.10
2018-06-03T10:25:17.595Z,27.20
2018-06-03T10:27:45.061Z,25.23
2018-06-03T10:30:12.593Z,29.30
2018-06-03T10:32:40.077Z,28.17
2018-06-03T10:35:07.560Z,26.53
2018-06-03T10:37:35.240Z,25.10
2018-06-03T10:40:02.732Z,24.70
2018-06-03T10:42:30.198Z,23.40
2018-06-03T10:45:26.438Z,17.10
2018-06-03T10:47:54.972Z,19.07
2018-06-03T10:50:23.397Z,18.07
2018-06-03T10:52:51.816Z,22.30
2018-06-03T10:55:20.212Z,17.40
2018-06-03T10:57:48.742Z,19.47
2018-06-03T11:00:17.369Z,22.50
2018-06-03T11:02:45.805Z,23.00
2018-06-03T11:05:14.841Z,22.70
2018-06-03T11:07:43.341Z,24.87
2018-06-03T11:10:11.746Z,25.30
2018-06-03T11:12:40.168Z,24.30
2018-06-03T11:15:08.652Z,26.60
2018-06-03T11:17:38.410Z,28.43
2018-06-03T11:20:06.900Z,25.00
2018-06-03T11:22:35.398Z,23.57
2018-06-03T11:25:04.348Z,24.50
2018-06-03T11:27:32.837Z,23.30
2018-06-03T11:30:01.277Z,24.10
2018-06-03T11:32:29.682Z,25.67
2018-06-03T11:34:58.183Z,25.50
2018-06-03T11:37:26.626Z,26.67
2018-06-03T11:39:55.045Z,25.63
2018-06-03T11:42:23.587Z,27.30
2018-06-03T11:44:52.021Z,24.40
2018-06-03T11:47:20.445Z,23.20
2018-06-03T11:49:48.845Z,23.33
2018-06-03T11:52:17.297Z,25.17
2018-06-03T11:59:34.334Z,22.60
2018-06-03T12:02:02.741Z,19.40
2018-06-03T12:04:31.154Z,20.20
2018-06-03T12:06:59.923Z,19.73
2018-06-03T12:09:28.417Z,18.57
2018-06-03T12:11:56.836Z,18.80
2018-06-03T12:14:25.401Z,17.30
2018-06-03T12:16:53.881Z,17.90
2018-06-03T12:19:22.281Z,16.03
2018-06-03T12:21:50.710Z,18.90
2018-06-03T12:24:19.268Z,20.03
2018-06-03T12:26:47.809Z,19.83
2018-06-03T12:29:16.274Z,19.27
2018-06-03T12:31:44.720Z,23.83
2018-06-03T12:34:13.175Z,17.80
2018-06-03T12:36:41.591Z,19.67
2018-06-03T12:39:10.242Z,17.97
2018-06-03T12:41:38.941Z,18.47
2018-06-03T12:44:07.385Z,20.50
2018-06-03T12:46:35.801Z,16.73
2018-06-03T12:49:04.301Z,18.00
2018-06-03T12:51:32.764Z,19.30
2018-06-03T12:54:01.252Z,16.63
2018-06-03T12:56:29.682Z,19.73
2018-06-03T12:58:58.081Z,17.70
2018-06-03T13:01:26.599Z,17.47
2018-06-03T13:03:55.021Z,19.33
2018-06-03T13:06:23.452Z,17.00
2018-06-03T13:08:52.637Z,19.10
2018-06-03T13:11:21.298Z,17.90
2018-06-03T13:13:49.721Z,18.30
2018-06-03T13:16:18.291Z,14.87
2018-06-03T13:18:46.717Z,16.73
2018-06-03T13:21:15.168Z,17.10
2018-06-03T13:23:43.640Z,17.90
2018-06-03T13:26:12.046Z,15.83
2018-06-03T13:28:40.457Z,14.90
2018-06-03T13:31:08.576Z,15.50
2018-06-03T13:33:36.992Z,15.03
2018-06-03T13:36:05.833Z,14.43
2018-06-03T13:38:34.258Z,14.70
2018-06-03T13:41:02.809Z,16.20
2018-06-03T13:43:31.294Z,15.90
2018-06-03T13:45:59.681Z,15.00
2018-06-03T13:48:28.137Z,15.00
2018-06-03T13:50:56.524Z,14.80
2018-06-03T13:53:25.011Z,14.00
2018-06-03T13:55:53.436Z,14.97
2018-06-03T13:58:21.572Z,15.80
2018-06-03T14:00:50.033Z,14.50
2018-06-03T14:03:18.450Z,14.50
2018-06-03T14:05:46.875Z,16.20
2018-06-03T14:08:15.302Z,14.30
2018-06-03T14:10:43.753Z,14.47
2018-06-03T14:13:12.196Z,13.17
2018-06-03T14:15:40.324Z,13.70
2018-06-03T14:18:08.795Z,13.53
2018-06-03T14:20:37.223Z,13.43
2018-06-03T14:23:05.881Z,12.60
2018-06-03T14:25:34.291Z,15.20
2018-06-03T14:28:02.367Z,13.87
2018-06-03T14:30:31.141Z,14.53
2018-06-03T14:32:59.565Z,15.97
2018-06-03T14:35:28.019Z,13.50
2018-06-03T14:37:56.669Z,14.27
2018-06-03T14:40:25.157Z,14.57
2018-06-03T14:42:53.577Z,14.20
2018-06-03T14:45:22.229Z,14.10
2018-06-03T14:47:50.639Z,12.50
2018-06-03T14:50:19.048Z,14.63
2018-06-03T14:52:47.767Z,15.87
2018-06-03T14:55:16.195Z,14.50
2018-06-03T14:57:44.631Z,15.10
2018-06-03T15:00:13.157Z,15.00
2018-06-03T15:02:41.570Z,13.80
2018-06-03T15:05:09.981Z,12.80
2018-06-03T15:07:38.686Z,12.10
2018-06-03T15:10:07.127Z,12.43
2018-06-03T15:12:35.541Z,12.00
2018-06-03T15:15:04.223Z,12.00
2018-06-03T15:17:32.760Z,12.30
2018-06-03T15:20:01.188Z,11.97
2018-06-03T15:22:29.652Z,11.40
2018-06-03T15:24:58.064Z,11.90
2018-06-03T15:27:26.466Z,10.70
2018-06-03T15:29:54.962Z,9.70
2018-06-03T15:32:23.398Z,9.67
2018-06-03T15:34:52.037Z,9.53
2018-06-03T15:37:20.510Z,9.60
2018-06-03T15:39:49.033Z,9.57
2018-06-03T15:42:17.512Z,10.43
2018-06-03T15:44:46.041Z,10.50
2018-06-03T15:47:14.490Z,10.70
2018-06-03T15:49:42.937Z,9.80
2018-06-03T15:52:11.397Z,10.90
2018-06-03T15:54:40.094Z,11.00
2018-06-03T15:57:08.645Z,10.33
2018-06-03T15:59:37.109Z,11.13
2018-06-03T16:02:06.348Z,10.40
2018-06-03T16:04:34.762Z,11.10
2018-06-03T16:07:03.231Z,11.60
2018-06-03T16:09:31.648Z,11.67
2018-06-03T16:12:00.045Z,11.10
2018-06-03T16:14:28.474Z,9.93
2018-06-03T16:16:56.601Z,12.70
2018-06-03T16:19:25.149Z,14.03
2018-06-03T16:21:53.609Z,11.57
2018-06-03T16:24:21.749Z,11.90
2018-06-03T16:26:50.165Z,10.90
2018-06-03T16:29:18.696Z,10.80
2018-06-03T16:31:47.144Z,10.70
2018-06-03T16:34:15.610Z,12.10
2018-06-03T16:36:44.237Z,11.63
2018-06-03T16:39:12.678Z,12.90
2018-06-03T16:41:41.241Z,12.20
2018-06-03T16:44:09.668Z,13.03
2018-06-03T16:46:38.127Z,13.40
2018-06-03T16:49:06.588Z,12.60
2018-06-03T16:51:34.989Z,11.40
2018-06-03T16:54:03.412Z,14.00
2018-06-03T16:56:31.792Z,12.10
2018-06-03T16:59:06.633Z,11.00
2018-06-03T17:01:36.118Z,12.70
2018-06-03T17:04:04.546Z,11.73
2018-06-03T17:06:33.045Z,12.60
2018-06-03T17:09:01.490Z,13.23
2018-06-03T17:11:30.043Z,12.97
2018-06-03T17:13:58.506Z,12.90
2018-06-03T17:16:27.952Z,13.87
2018-06-03T17:18:57.048Z,14.63
2018-06-03T17:21:25.941Z,13.10
2018-06-03T17:23:55.117Z,13.30
2018-06-03T17:26:24.147Z,14.23
2018-06-03T17:28:53.499Z,13.63
2018-06-03T17:31:22.476Z,13.17
2018-06-03T17:33:51.406Z,13.83
2018-06-03T17:36:20.509Z,12.53
2018-06-03T17:38:49.403Z,13.13
2018-06-03T17:41:18.419Z,13.20
2018-06-03T17:43:47.535Z,13.33
2018-06-03T17:46:16.339Z,12.70
2018-06-03T17:48:45.325Z,13.20
2018-06-03T17:51:14.057Z,13.33
2018-06-03T17:53:43.282Z,13.83
2018-06-03T17:56:11.764Z,12.80
2018-06-03T17:58:40.619Z,12.80
2018-06-03T18:01:09.395Z,11.80
2018-06-03T18:03:38.191Z,12.37
2018-06-03T18:06:06.706Z,11.60
2018-06-03T18:08:35.337Z,12.00
2018-06-03T18:11:03.780Z,12.47
2018-06-03T18:13:32.177Z,11.93
2018-06-03T18:16:00.746Z,10.93
2018-06-03T18:18:29.555Z,13.90
2018-06-03T18:20:57.981Z,12.27
2018-06-03T18:23:26.462Z,13.23
2018-06-03T18:25:55.182Z,11.60
2018-06-03T18:28:23.619Z,12.57
2018-06-03T18:30:52.106Z,11.87
2018-06-03T18:33:20.802Z,10.53
2018-06-03T18:35:49.201Z,12.40
2018-06-03T18:38:17.915Z,13.40
2018-06-03T18:40:46.453Z,13.67
2018-06-03T18:43:14.893Z,13.03
2018-06-03T18:45:43.526Z,12.17
2018-06-03T18:48:11.923Z,13.20
2018-06-03T18:50:40.016Z,14.10
2018-06-03T18:53:08.549Z,12.47
2018-06-03T18:55:36.993Z,11.17
2018-06-03T18:58:05.428Z,11.93
2018-06-03T19:00:33.721Z,10.63
2018-06-03T19:03:02.355Z,10.50
2018-06-03T19:05:30.773Z,11.53
2018-06-03T19:07:59.292Z,12.27
2018-06-03T19:10:27.842Z,10.43
2018-06-03T19:12:56.281Z,9.60
2018-06-03T19:15:24.834Z,11.10
2018-06-03T19:17:53.337Z,10.43
2018-06-03T19:20:22.171Z,10.23
2018-06-03T19:22:50.649Z,10.43
2018-06-03T19:25:19.065Z,11.53
2018-06-03T19:27:47.693Z,10.67
2018-06-03T19:30:16.306Z,11.70
2018-06-03T19:32:44.737Z,10.77
2018-06-03T19:35:13.177Z,12.90
2018-06-03T19:37:41.996Z,12.07
2018-06-03T19:40:10.556Z,12.43
2018-06-03T19:42:38.952Z,12.37
2018-06-03T19:45:07.569Z,12.23
2018-06-03T19:47:35.986Z,12.20
2018-06-03T19:50:04.458Z,12.17
2018-06-03T19:52:32.929Z,12.50
2018-06-03T19:55:01.088Z,11.70
2018-06-03T19:57:29.555Z,11.27
2018-06-03T19:59:58.034Z,12.47
2018-06-03T20:02:26.426Z,12.07
2018-06-03T20:04:55.177Z,11.27
2018-06-03T20:07:23.609Z,12.60
2018-06-03T20:09:51.997Z,13.03
2018-06-03T20:12:20.508Z,13.50
2018-06-03T20:14:48.967Z,12.63
2018-06-03T20:17:17.369Z,13.90
2018-06-03T20:19:45.789Z,13.00
2018-06-03T20:22:14.212Z,13.40
2018-06-03T20:24:42.703Z,13.97
2018-06-03T20:27:11.337Z,14.70
2018-06-03T20:29:39.578Z,15.30
2018-06-03T20:32:08.127Z,13.60
2018-06-03T20:34:36.645Z,13.20
2018-06-03T20:37:05.045Z,13.47
2018-06-03T20:39:33.552Z,14.23
2018-06-03T20:42:02.070Z,13.87
2018-06-03T20:44:30.458Z,14.13
2018-06-03T20:46:59.033Z,15.63
2018-06-03T20:49:27.486Z,16.40
2018-06-03T20:51:55.885Z,18.00
2018-06-03T20:54:24.276Z,19.77
2018-06-03T20:56:52.968Z,20.13
2018-06-03T20:59:21.399Z,18.10
2018-06-03T21:01:49.800Z,17.57
2018-06-03T21:04:18.220Z,18.60
2018-06-03T21:06:46.746Z,16.97
2018-06-03T21:09:15.255Z,17.10
2018-06-03T21:11:43.856Z,16.97
2018-06-03T21:14:12.549Z,18.40
2018-06-03T21:16:41.060Z,17.10
2018-06-03T21:19:09.465Z,18.10
2018-06-03T21:21:38.033Z,16.73
2018-06-03T21:24:06.467Z,16.40
2018-06-03T21:26:34.884Z,15.80
2018-06-03T21:29:03.285Z,17.43
2018-06-03T21:31:31.909Z,18.63
2018-06-03T21:34:01.405Z,18.20
2018-06-03T21:36:29.816Z,18.47
2018-06-03T21:38:58.247Z,17.80
2018-06-03T21:41:26.717Z,16.13
2018-06-03T21:43:55.123Z,17.70
2018-06-03T21:46:23.544Z,17.90
2018-06-03T21:48:52.018Z,17.37
2018-06-03T21:51:20.425Z,17.33
2018-06-03T21:53:48.848Z,19.30
2018-06-03T21:56:18.251Z,18.50
2018-06-03T21:58:46.634Z,18.77
2018-06-03T22:01:15.033Z,17.07
2018-06-03T22:03:43.458Z,17.93
2018-06-03T22:06:12.038Z,19.60
2018-06-03T22:08:40.767Z,19.27
2018-06-03T22:11:09.178Z,19.60
2018-06-03T22:13:37.560Z,18.33
2018-06-03T22:16:05.993Z,18.13
2018-06-03T22:18:34.452Z,18.67
2018-06-03T22:21:02.861Z,18.50
2018-06-03T22:23:31.524Z,16.57
2018-06-03T22:25:59.909Z,18.07
2018-06-03T22:28:28.361Z,16.97
2018-06-03T22:30:56.967Z,17.73
2018-06-03T22:33:25.451Z,16.60
2018-06-03T22:35:53.946Z,16.93
2018-06-03T22:38:22.560Z,16.70
2018-06-03T22:40:50.940Z,16.83
2018-06-03T22:43:19.404Z,16.93
2018-06-03T22:45:48.057Z,16.17
2018-06-03T22:48:16.450Z,17.80
2018-06-03T22:50:44.842Z,17.87
2018-06-03T22:53:13.489Z,17.20
2018-06-03T22:55:41.981Z,16.17
2018-06-03T22:58:10.404Z,18.20
2018-06-03T23:00:39.249Z,18.27
2018-06-03T23:03:12.995Z,19.57
2018-06-03T23:05:41.629Z,18.40
2018-06-03T23:08:10.009Z,18.17
2018-06-03T23:10:38.449Z,18.10
2018-06-03T23:13:07.218Z,18.63
2018-06-03T23:15:35.649Z,17.97
2018-06-03T23:18:04.057Z,18.37
2018-06-03T23:20:32.649Z,19.30
2018-06-03T23:23:01.045Z,19.80
2018-06-03T23:25:29.434Z,18.90
2018-06-03T23:27:58.006Z,19.23
2018-06-03T23:30:26.484Z,18.80
2018-06-03T23:32:54.858Z,19.70
2018-06-03T23:35:23.264Z,18.50
2018-06-03T23:37:51.742Z,19.20
2018-06-03T23:40:20.390Z,17.70
2018-06-03T23:42:48.789Z,18.30
2018-06-03T23:45:17.192Z,18.53
2018-06-03T23:47:45.987Z,21.03
2018-06-03T23:50:14.383Z,21.87
2018-06-03T23:52:42.735Z,20.10
2018-06-03T23:55:11.152Z,19.00
2018-06-03T23:57:39.650Z,20.20
